Terminal Aerodrome Forecast
Issued by NWS

Current Version | Previous Version | Text Only | Print | Product List | Glossary On
Versions: 1 2 3 4 5 6 7 8 9 10 11 12 13
000
FTUS44 KCRP 291700
TAFLRD
TAF
KLRD 291729Z 2918/3018 16008KT P6SM SKC
     FM300200 14015G20KT P6SM SKC
     FM300800 17006KT P6SM SKC=

USA.gov is the U.S. government's official web portal to all federal, state and local government web resources and services.